Flight Track Log - Related Links

Times and Time Zones

All times are in EST time to prevent confusion due to time zone crossing. See the EJM826 flight status page for this flight to view local times or setup timezone preferences in your user account.

Time Position Orientation Groundspeed Altitude Reporting Facility
EST Latitude Longitude Course Direction KTS MPH feet Rate Location/Type
Wed 05:02:30 PM 38.9333 -77.5167 218° Southwest 178 205 2,300  Level Potomac TRACON
Wed 05:03:30 PM 38.9000 -77.5500 218° Southwest 205 236 5,500 2,850 Climbing Potomac TRACON
Wed 05:04:30 PM 38.8333 -77.5833 201° Southwest 252 290 8,000 2,750 Climbing Potomac TRACON
Wed 05:05:30 PM 38.7500 -77.6000 189° South 325 374 11,000 2,923 Climbing Potomac TRACON
Wed 05:07:06 PM 38.5950 -77.5519 166° South 349 402 15,600 2,522 Climbing Washington Center
Wed 05:08:07 PM 38.5111 -77.5817 195° South 349 402 17,600 2,281 Climbing Washington Center
Wed 05:09:07 PM 38.4844 -77.6817 251° West 297 342 20,200 2,331 Climbing Washington Center
Wed 05:10:08 PM 38.4533 -77.7869 249° West 282 325 22,300 2,168 Climbing Washington Center
Wed 05:11:06 PM 38.4056 -77.8914 240° Southwest 315 362 24,500 2,017 Climbing Washington Center
Wed 05:12:07 PM 38.3269 -77.9739 219° Southwest 346 398 26,300 1,279 Climbing Washington Center
Wed 05:13:08 PM 38.2436 -78.0664 221° Southwest 374 430 27,100 793 Climbing Washington Center
Wed 05:14:08 PM 38.1561 -78.1639 221° Southwest 407 468 27,900 864 Climbing Washington Center
Wed 05:15:06 PM 38.0664 -78.2661 222° Southwest 427 491 28,800 958 Climbing Washington Center
Wed 05:16:07 PM 37.9806 -78.3658 222° Southwest 428 493 29,800 787 Climbing Washington Center
Wed 05:17:08 PM 37.8864 -78.4731 222° Southwest 433 498 30,400 744 Climbing Washington Center
Wed 05:18:08 PM 37.7942 -78.5772 222° Southwest 438 504 31,300 763 Climbing Washington Center
Wed 05:19:06 PM 37.7203 -78.6950 232° Southwest 438 504 31,900 661 Climbing Washington Center
Wed 05:20:06 PM 37.6642 -78.8397 244° Southwest 431 496 32,600 893 Climbing Washington Center
Wed 05:21:07 PM 37.6147 -78.9739 245° Southwest 425 489 33,700 1,377 Climbing Washington Center
Wed 05:22:08 PM 37.5672 -79.1000 245° Southwest 419 482 35,400 1,835 Climbing Washington Center
Wed 05:23:08 PM 37.5178 -79.2156 242° Southwest 393 452 37,400 1,831 Climbing Washington Center
Wed 05:24:06 PM 37.4661 -79.3336 241° Southwest 382 440 39,000 1,678 Climbing Washington Center
Wed 05:25:06 PM 37.4128 -79.4408 238° Southwest 373 429 40,700 1,240 Climbing Washington Center
Wed 05:26:07 PM 37.3611 -79.5531 240° Southwest 373 429 41,500 893 Climbing Washington Center
Wed 05:27:07 PM 37.3181 -79.6553 242° Southwest 368 423 42,500 744 Climbing Washington Center
Wed 05:28:08 PM 37.2706 -79.7625 241° Southwest 368 423 43,000 195 Climbing Washington Center
Wed 05:29:41 PM 37.1867 -79.9411 240° Southwest 368 423 43,000  Level Atlanta Center
Wed 05:30:41 PM 37.1322 -80.0583 240° Southwest 382 440 43,000  Level Atlanta Center
Wed 05:31:41 PM 37.0758 -80.1808 240° Southwest 396 456 43,000  Level Atlanta Center
Wed 05:32:41 PM 37.0153 -80.3139 240° Southwest 412 474 43,000  Level Atlanta Center
Wed 05:33:41 PM 36.9564 -80.4386 239° Southwest 412 474 43,000  Level Atlanta Center
Wed 05:34:41 PM 36.8994 -80.5606 240° Southwest 412 474 43,000  Level Atlanta Center
Wed 05:35:41 PM 36.8403 -80.6850 239° Southwest 412 474 43,000  Level Atlanta Center
Wed 05:36:41 PM 36.7853 -80.8067 241° Southwest 412 474 43,000  Level Atlanta Center
Wed 05:37:41 PM 36.7381 -80.9122 241° Southwest 406 467 43,000  Level Atlanta Center
Wed 05:38:41 PM 36.6806 -81.0336 239° Southwest 406 467 43,000  Level Atlanta Center
Wed 05:39:41 PM 36.6250 -81.1572 241° Southwest 411 473 43,000  Level Atlanta Center
Wed 05:40:41 PM 36.5675 -81.2781 239° Southwest 411 473 43,000  Level Atlanta Center
Wed 05:41:41 PM 36.5097 -81.4017 240° Southwest 411 473 43,000  Level Atlanta Center
Wed 05:42:41 PM 36.4539 -81.5222 240° Southwest 411 473 43,000  Level Atlanta Center
Wed 05:43:41 PM 36.3956 -81.6425 239° Southwest 411 473 43,000  Level Atlanta Center
Wed 05:44:41 PM 36.3375 -81.7628 239° Southwest 411 473 43,000  Level Atlanta Center
Wed 05:45:41 PM 36.2753 -81.8961 240° Southwest 411 473 43,000  Level Atlanta Center
Wed 05:46:41 PM 36.2147 -82.0161 238° Southwest 411 473 43,000  Level Atlanta Center
Wed 05:47:41 PM 36.1583 -82.1358 240° Southwest 411 473 43,000  Level Atlanta Center
Wed 05:48:41 PM 36.1036 -82.2425 238° Southwest 413 475 43,000  Level Atlanta Center
Wed 05:49:41 PM 36.0447 -82.3567 237° Southwest 413 475 43,000  Level Atlanta Center
Wed 05:50:41 PM 35.9836 -82.4758 238° Southwest 413 475 43,000  Level Atlanta Center
Wed 05:51:41 PM 35.9228 -82.6053 240° Southwest 408 470 43,000  Level Atlanta Center
Wed 05:52:41 PM 35.8656 -82.7242 239° Southwest 408 470 43,000  Level Atlanta Center
Wed 05:53:41 PM 35.8064 -82.8403 238° Southwest 408 470 43,000  Level Atlanta Center
Wed 05:54:41 PM 35.7489 -82.9564 239° Southwest 408 470 43,000  Level Atlanta Center
Wed 05:55:41 PM 35.6894 -83.0722 238° Southwest 408 470 43,000  Level Atlanta Center
Wed 05:56:41 PM 35.6319 -83.1906 239° Southwest 408 470 43,000  Level Atlanta Center
Wed 05:57:41 PM 35.5764 -83.3033 239° Southwest 408 470 43,000  Level Atlanta Center
Wed 05:58:41 PM 35.5186 -83.4186 238° Southwest 408 470 43,000  Level Atlanta Center
Wed 05:59:41 PM 35.4606 -83.5314 238° Southwest 408 470 43,000  Level Atlanta Center
Wed 06:00:41 PM 35.4025 -83.6464 238° Southwest 408 470 43,000  Level Atlanta Center
Wed 06:01:41 PM 35.3444 -83.7561 237° Southwest 403 464 43,000  Level Atlanta Center
Wed 06:02:41 PM 35.2864 -83.8708 238° Southwest 403 464 43,000  Level Atlanta Center
Wed 06:03:41 PM 35.2281 -83.9878 239° Southwest 403 464 43,000  Level Atlanta Center
Wed 06:04:41 PM 35.1694 -84.1022 238° Southwest 408 470 43,000  Level Atlanta Center
Wed 06:05:41 PM 35.1111 -84.2139 237° Southwest 408 470 43,000  Level Atlanta Center
Wed 06:06:41 PM 35.0503 -84.3281 237° Southwest 408 470 43,000  Level Atlanta Center
Wed 06:07:41 PM 34.9917 -84.4444 238° Southwest 408 470 43,000  Level Atlanta Center
Wed 06:08:41 PM 34.9328 -84.5581 238° Southwest 408 470 43,000  Level Atlanta Center
Wed 06:09:41 PM 34.8717 -84.6742 237° Southwest 408 470 43,000  Level Atlanta Center
Wed 06:10:41 PM 34.8125 -84.7875 238° Southwest 408 470 43,000  Level Atlanta Center
Wed 06:11:41 PM 34.7514 -84.9008 237° Southwest 408 470 43,000  Level Atlanta Center
Wed 06:12:41 PM 34.6942 -85.0139 238° Southwest 408 470 43,000  Level Atlanta Center
Wed 06:13:41 PM 34.6369 -85.1269 238° Southwest 402 463 43,000  Level Atlanta Center
Wed 06:14:41 PM 34.5753 -85.2372 236° Southwest 408 470 43,000  Level Atlanta Center
Wed 06:15:41 PM 34.5156 -85.3522 238° Southwest 408 470 43,000  Level Atlanta Center
Wed 06:16:41 PM 34.4561 -85.4597 236° Southwest 403 464 43,000  Level Atlanta Center
Wed 06:17:41 PM 34.3983 -85.5719 238° Southwest 403 464 43,000  Level Atlanta Center
Wed 06:18:41 PM 34.3492 -85.6717 239° Southwest 397 457 43,000  Level Atlanta Center
Wed 06:19:41 PM 34.2850 -85.7811 235° Southwest 397 457 43,000  Level Atlanta Center
Wed 06:20:41 PM 34.2250 -85.8878 236° Southwest 397 457 43,000  Level Atlanta Center
Wed 06:21:41 PM 34.1647 -85.9969 236° Southwest 392 451 43,000  Level Atlanta Center
Wed 06:22:41 PM 34.1047 -86.1061 236° Southwest 392 451 43,000  Level Atlanta Center
Wed 06:23:41 PM 34.0422 -86.2197 236° Southwest 398 458 43,000  Level Atlanta Center
Wed 06:24:41 PM 33.9836 -86.3311 238° Southwest 398 458 43,000  Level Atlanta Center
Wed 06:25:41 PM 33.9211 -86.4419 236° Southwest 403 464 43,000  Level Atlanta Center
Wed 06:26:41 PM 33.8606 -86.5531 237° Southwest 403 464 43,000  Level Atlanta Center
Wed 06:27:41 PM 33.7975 -86.6636 236° Southwest 403 464 43,000  Level Atlanta Center
Wed 06:28:41 PM 33.7303 -86.7839 236° Southwest 408 470 43,000  Level Atlanta Center
Wed 06:29:41 PM 33.6694 -86.8942 236° Southwest 408 470 43,000  Level Atlanta Center
Wed 06:30:41 PM 33.6247 -87.0150 246° West 402 463 43,000  Level Atlanta Center
Wed 06:31:41 PM 33.5800 -87.1331 246° West 402 463 43,000  Level Atlanta Center
Wed 06:32:41 PM 33.5372 -87.2539 247° West 397 457 43,000  Level Atlanta Center
Wed 06:34:07 PM 33.4786 -87.4156 247° West 393 452 43,000  Level Memphis Center
Wed 06:35:09 PM 33.4350 -87.5372 247° West 394 453 43,000  Level Memphis Center
Wed 06:36:11 PM 33.3894 -87.6578 246° West 397 457 43,000  Level Memphis Center
Wed 06:37:13 PM 33.3375 -87.7756 242° Southwest 399 459 43,000  Level Memphis Center
Wed 06:38:15 PM 33.2764 -87.9167 243° Southwest 400 460 43,000  Level Memphis Center
Wed 06:39:17 PM 33.2250 -88.0331 242° Southwest 397 457 43,000  Level Memphis Center
Wed 06:40:19 PM 33.1728 -88.1494 242° Southwest 397 457 43,000  Level Memphis Center
Wed 06:41:21 PM 33.1194 -88.2758 243° Southwest 398 458 43,000  Level Memphis Center
Wed 06:42:23 PM 33.0675 -88.3917 242° Southwest 398 458 43,000  Level Memphis Center
Wed 06:43:26 PM 33.0158 -88.5072 242° Southwest 398 458 43,000  Level Memphis Center
Wed 06:44:28 PM 32.9644 -88.6228 242° Southwest 398 458 43,000  Level Memphis Center
Wed 06:45:30 PM 32.9033 -88.7611 242° Southwest 396 456 43,000  Level Memphis Center
Wed 06:46:32 PM 32.8517 -88.8769 242° Southwest 398 458 43,000  Level Memphis Center
Wed 06:47:34 PM 32.8008 -88.9925 242° Southwest 397 457 43,000  Level Memphis Center
Wed 06:48:36 PM 32.7486 -89.1072 242° Southwest 396 456 43,000  Level Memphis Center
Wed 06:49:38 PM 32.6972 -89.2211 242° Southwest 393 452 43,000  Level Memphis Center
Wed 06:50:40 PM 32.6450 -89.3356 242° Southwest 394 453 43,000  Level Memphis Center
Wed 06:51:42 PM 32.5861 -89.4758 244° Southwest 395 455 43,000  Level Memphis Center
Wed 06:52:44 PM 32.5400 -89.5928 245° Southwest 394 453 43,000  Level Memphis Center
Wed 06:53:46 PM 32.4914 -89.7083 244° Southwest 392 451 43,000  Level Memphis Center
Wed 06:54:48 PM 32.4442 -89.8244 244° Southwest 392 451 43,000  Level Memphis Center
Wed 06:55:50 PM 32.3958 -89.9419 244° Southwest 394 453 43,000  Level Memphis Center
Wed 06:56:52 PM 32.3483 -90.0578 244° Southwest 394 453 43,000  Level Memphis Center
Wed 06:57:54 PM 32.2911 -90.1972 244° Southwest 394 453 43,000  Level Memphis Center
Wed 06:58:56 PM 32.2431 -90.3122 244° Southwest 394 453 43,000  Level Memphis Center
Wed 06:59:58 PM 32.1947 -90.4281 244° Southwest 393 452 43,000  Level Memphis Center
Wed 07:01:01 PM 32.1467 -90.5425 244° Southwest 393 452 43,000  Level Memphis Center
Wed 07:02:03 PM 32.0986 -90.6572 244° Southwest 392 451 43,000  Level Memphis Center
Wed 07:03:05 PM 32.0414 -90.7939 244° Southwest 391 450 43,000  Level Memphis Center
Wed 07:04:07 PM 31.9936 -90.9078 244° Southwest 391 450 43,000  Level Memphis Center
Wed 07:05:09 PM 31.9450 -91.0211 243° Southwest 389 448 43,000  Level Memphis Center
Wed 07:06:11 PM 31.8975 -91.1342 244° Southwest 389 448 43,000  Level Memphis Center
Wed 07:07:13 PM 31.8467 -91.2478 242° Southwest 392 451 43,000  Level Memphis Center
Wed 07:08:15 PM 31.7842 -91.3797 241° Southwest 389 448 43,000  Level Memphis Center
Wed 07:09:17 PM 31.7333 -91.4906 242° Southwest 388 447 43,000  Level Memphis Center
Wed 07:10:19 PM 31.6811 -91.6025 241° Southwest 390 449 43,000  Level Memphis Center
Wed 07:11:21 PM 31.6294 -91.7122 241° Southwest 390 449 43,000  Level Memphis Center
Wed 07:12:37 PM 31.5606 -91.8597 241° Southwest 391 450 43,000  Level Houston Center
Wed 07:13:40 PM 31.5078 -91.9706 241° Southwest 390 449 43,000  Level Houston Center
Wed 07:14:42 PM 31.4550 -92.0811 241° Southwest 392 451 43,000  Level Houston Center
Wed 07:15:44 PM 31.4019 -92.1922 241° Southwest 392 451 43,000  Level Houston Center
Wed 07:16:46 PM 31.3389 -92.3261 241° Southwest 394 453 43,000  Level Houston Center
Wed 07:17:48 PM 31.2856 -92.4369 241° Southwest 394 453 43,000  Level Houston Center
Wed 07:18:50 PM 31.2339 -92.5503 242° Southwest 395 455 43,000  Level Houston Center
Wed 07:19:52 PM 31.1947 -92.6697 249° West 393 452 43,000  Level Houston Center
Wed 07:20:54 PM 31.1514 -92.7861 247° West 393 452 43,000  Level Houston Center
Wed 07:21:57 PM 31.0992 -92.9261 246° West 394 453 43,000  Level Houston Center
Wed 07:22:59 PM 31.0558 -93.0436 247° West 395 455 43,000  Level Houston Center
Wed 07:24:01 PM 31.0111 -93.1606 246° West 397 457 43,000  Level Houston Center
Wed 07:25:03 PM 30.9672 -93.2778 246° West 397 457 43,000 -339 Level Houston Center
Wed 07:26:05 PM 30.9247 -93.3936 247° West 392 451 42,300 -1,597 Descending Houston Center
Wed 07:27:07 PM 30.8803 -93.5122 246° West 401 461 39,700 -2,226 Descending Houston Center
Wed 07:28:09 PM 30.8267 -93.6544 246° West 402 463 37,700 -2,371 Descending Houston Center
Wed 07:29:11 PM 30.7811 -93.7758 246° West 412 474 34,800 -2,710 Descending Houston Center
Wed 07:30:13 PM 30.7336 -93.8981 246° West 417 480 32,100 -2,710 Descending Houston Center
Wed 07:31:15 PM 30.6861 -94.0233 246° West 424 488 29,200 -2,855 Descending Houston Center
Wed 07:32:17 PM 30.6281 -94.1753 246° West 431 496 26,200 -2,870 Descending Houston Center
Wed 07:32:24 PM 30.6225 -94.1919 249° West 432 497 25,900 -2,381 Descending Houston Center
Wed 07:33:20 PM 30.5797 -94.2992 245° Southwest 425 489 23,700 -2,462 Descending Houston Center
Wed 07:34:21 PM 30.5283 -94.4303 246° West 416 479 21,100 -2,323 Descending Houston Center
Wed 07:34:22 PM 30.5325 -94.4206 64° Northeast 417 480 21,300 -2,459 Climbing Houston Center
Wed 07:35:22 PM 30.4767 -94.5461 243° Southwest 410 472 18,600 -2,286 Descending Houston Center
Wed 07:35:25 PM 30.4814 -94.5369 59° Northeast 412 474 18,900 -1,688 Climbing Houston Center
Wed 07:36:26 PM 30.4136 -94.6433 234° Southwest 392 451 16,800 -2,344 Descending Houston Center
Wed 07:36:29 PM 30.4033 -94.6575 230° Southwest 357 411 16,400 -2,438 Descending Houston Center
Wed 07:37:30 PM 30.3469 -94.7472 234° Southwest 326 375 14,200 -1,686 Descending Houston Center
Wed 07:38:30 PM 30.3053 -94.8094 232° Southwest 314 361 13,000 -1,500 Descending Houston Center
Wed 07:38:38 PM 30.2919 -94.8317 235° Southwest 296 341 12,500 -1,810 Descending Houston Center
Wed 07:39:33 PM 30.2497 -94.8950 232° Southwest 268 308 11,100 -877 Descending Houston Center
Wed 07:41:29 PM 30.1633 -95.0267 233° Southwest 271 312 10,000 -488 Descending Houston Center
Wed 07:41:36 PM 30.1608 -95.0317 240° Southwest 269 310 10,100  Climbing Houston Center
Wed 07:42:36 PM 30.0953 -95.0858 216° Southwest 281 323 10,000  Descending Houston Center
Wed 07:42:38 PM 30.0992 -95.0836 26° Northeast 281 323 10,100  Climbing Houston Center
Wed 07:43:37 PM 30.0228 -95.1189 202° Southwest 273 314 10,000  Descending Houston Center
Wed 07:43:41 PM 30.0289 -95.1150 29° Northeast 272 313 10,100 -107 Climbing Houston Center
Wed 07:44:33 PM 29.9581 -95.1461 201° Southwest 267 307 9,900 -97 Descending Houston Center
Wed 07:44:43 PM 29.9594 -95.1456 19° North 269 310 10,000 -1,000 Climbing Houston Center
Wed 07:45:33 PM 29.8897 -95.1764 201° Southwest 267 307 8,900 -1,258 Descending Houston Center
Wed 07:45:45 PM 29.8758 -95.1814 197° South 267 307 8,700 -1,378 Descending Houston Center
Wed 07:46:47 PM 29.8197 -95.2272 215° Southwest 265 305 7,200 -1,892 Descending Houston Center
Wed 07:47:36 PM 29.8064 -95.2997 258° West 254 292 5,200 -2,129 Descending Houston Center
Wed 07:47:49 PM 29.8053 -95.3069 260° West 258 297 5,000 -1,082 Descending Houston Center
Wed 07:48:37 PM 29.7972 -95.3803 263° West 226 260 4,100 -871 Descending Houston Center
Wed 07:48:51 PM 29.7972 -95.3839 270° West 248 285 4,100 -627 Level Houston Center
Wed 07:49:44 PM 29.7656 -95.4033 208° Southwest 144 166 3,400 -677 Descending Houston Center
Wed 07:49:53 PM 29.7678 -95.4031 North 197 227 3,400 -982 Level Houston Center
Wed 07:50:39 PM 29.7342 -95.3806 150° Southeast 139 160 2,500 -968 Descending Houston Center
Wed 07:50:55 PM 29.7272 -95.3736 139° Southeast 159 183 2,400 -590 Descending Houston Center
Wed 07:51:40 PM 29.7086 -95.3547 139° Southeast 108 124 1,900 -581 Descending Houston Center
Wed 07:51:57 PM 29.7058 -95.3500 124° Southeast 127 146 1,800 -581 Descending Houston Center
Wed 07:52:42 PM 29.6875 -95.3308 138° Southeast 104 120 1,300 -581 Descending Houston Center
Wed 07:52:59 PM 29.6853 -95.3261 118° Southeast 113 130 1,200 -590 Descending Houston Center
Wed 07:53:43 PM 29.6689 -95.3092 138° Southeast 99 114 700 -571 Descending Houston Center
Wed 07:54:02 PM 29.6661 -95.3039 121° Southeast 104 120 600 -444 Descending Houston Center
Wed 07:55:04 PM 29.6442 -95.2778 134° Southeast 103 119 100 -484 Descending Houston Center

Login

Don't have an account? Register now (free) for customized features, flight alerts, and more!